sensor_id;sensor_type;location;lat;lon;timestamp;pressure;altitude;pressure_sealevel;temperature;humidity
16613;BME280;8419;52.358;9.752;2022-12-16T00:00:43;100377.00;;;5.16;38.15
16613;BME280;8419;52.358;9.752;2022-12-16T00:03:30;100379.00;;;5.15;38.13
16613;BME280;8419;52.358;9.752;2022-12-16T00:06:17;100375.00;;;5.16;38.10
16613;BME280;8419;52.358;9.752;2022-12-16T00:09:03;100371.00;;;5.12;38.14
16613;BME280;8419;52.358;9.752;2022-12-16T00:11:48;100373.00;;;5.12;38.15
16613;BME280;8419;52.358;9.752;2022-12-16T00:14:34;100372.00;;;5.08;38.17
16613;BME280;8419;52.358;9.752;2022-12-16T00:17:20;100369.00;;;5.06;38.20
16613;BME280;8419;52.358;9.752;2022-12-16T00:20:08;100369.00;;;5.04;38.23
16613;BME280;8419;52.358;9.752;2022-12-16T00:22:54;100370.00;;;5.06;38.19
16613;BME280;8419;52.358;9.752;2022-12-16T00:25:42;100365.00;;;5.03;38.20
16613;BME280;8419;52.358;9.752;2022-12-16T00:28:27;100373.00;;;5.03;38.20
16613;BME280;8419;52.358;9.752;2022-12-16T00:31:13;100368.00;;;4.99;38.24
16613;BME280;8419;52.358;9.752;2022-12-16T00:33:59;100374.00;;;4.97;38.26
16613;BME280;8419;52.358;9.752;2022-12-16T00:36:44;100370.00;;;4.94;38.25
16613;BME280;8419;52.358;9.752;2022-12-16T00:39:30;100375.00;;;4.91;38.23
16613;BME280;8419;52.358;9.752;2022-12-16T00:42:15;100377.00;;;4.88;38.23
16613;BME280;8419;52.358;9.752;2022-12-16T00:45:01;100384.00;;;4.90;38.20
16613;BME280;8419;52.358;9.752;2022-12-16T00:47:49;100378.00;;;4.90;38.16
16613;BME280;8419;52.358;9.752;2022-12-16T00:50:35;100380.00;;;4.85;38.20
16613;BME280;8419;52.358;9.752;2022-12-16T00:53:22;100384.00;;;4.83;38.20
16613;BME280;8419;52.358;9.752;2022-12-16T00:56:10;100381.00;;;4.81;38.21
16613;BME280;8419;52.358;9.752;2022-12-16T00:58:58;100389.00;;;4.78;38.26
16613;BME280;8419;52.358;9.752;2022-12-16T01:01:44;100382.00;;;4.80;38.21
16613;BME280;8419;52.358;9.752;2022-12-16T01:04:29;100390.00;;;4.81;38.16
16613;BME280;8419;52.358;9.752;2022-12-16T01:07:15;100388.00;;;4.79;38.16
16613;BME280;8419;52.358;9.752;2022-12-16T01:10:01;100389.00;;;4.75;38.20
16613;BME280;8419;52.358;9.752;2022-12-16T01:12:47;100399.00;;;4.71;38.25
16613;BME280;8419;52.358;9.752;2022-12-16T01:15:32;100398.00;;;4.71;38.24
16613;BME280;8419;52.358;9.752;2022-12-16T01:18:19;100401.00;;;4.70;38.26
16613;BME280;8419;52.358;9.752;2022-12-16T01:21:06;100401.00;;;4.56;38.46
16613;BME280;8419;52.358;9.752;2022-12-16T01:23:52;100404.00;;;4.54;38.47
16613;BME280;8419;52.358;9.752;2022-12-16T01:26:38;100403.00;;;4.61;38.34
16613;BME280;8419;52.358;9.752;2022-12-16T01:29:23;100409.00;;;4.64;38.28
16613;BME280;8419;52.358;9.752;2022-12-16T01:32:12;100413.00;;;4.61;38.29
16613;BME280;8419;52.358;9.752;2022-12-16T01:34:58;100417.00;;;4.57;38.29
16613;BME280;8419;52.358;9.752;2022-12-16T01:37:46;100423.00;;;4.55;38.35
16613;BME280;8419;52.358;9.752;2022-12-16T01:40:31;100422.00;;;4.54;38.29
16613;BME280;8419;52.358;9.752;2022-12-16T01:43:19;100427.00;;;4.52;38.31
16613;BME280;8419;52.358;9.752;2022-12-16T01:46:13;100426.00;;;4.50;38.32
16613;BME280;8419;52.358;9.752;2022-12-16T01:49:03;100424.00;;;4.49;38.29
16613;BME280;8419;52.358;9.752;2022-12-16T01:51:50;100418.00;;;4.47;38.31
16613;BME280;8419;52.358;9.752;2022-12-16T01:54:40;100426.00;;;4.44;38.36
16613;BME280;8419;52.358;9.752;2022-12-16T01:57:29;100429.00;;;4.43;38.34
16613;BME280;8419;52.358;9.752;2022-12-16T02:00:18;100426.00;;;4.38;38.33
16613;BME280;8419;52.358;9.752;2022-12-16T02:03:04;100426.00;;;4.35;38.42
16613;BME280;8419;52.358;9.752;2022-12-16T02:05:50;100429.00;;;4.32;38.45
16613;BME280;8419;52.358;9.752;2022-12-16T02:08:37;100426.00;;;4.32;38.46
16613;BME280;8419;52.358;9.752;2022-12-16T02:11:38;100429.00;;;4.28;38.53
16613;BME280;8419;52.358;9.752;2022-12-16T02:14:40;100422.00;;;4.33;38.42
16613;BME280;8419;52.358;9.752;2022-12-16T02:17:37;100422.00;;;4.32;38.43
16613;BME280;8419;52.358;9.752;2022-12-16T02:21:00;100421.00;;;4.43;38.18
16613;BME280;8419;52.358;9.752;2022-12-16T02:24:05;100421.00;;;4.48;37.93
16613;BME280;8419;52.358;9.752;2022-12-16T02:30:32;100427.00;;;4.21;38.50
16613;BME280;8419;52.358;9.752;2022-12-16T02:33:32;100425.00;;;4.22;38.47
16613;BME280;8419;52.358;9.752;2022-12-16T02:36:27;100426.00;;;4.16;38.52
16613;BME280;8419;52.358;9.752;2022-12-16T02:39:20;100431.00;;;4.16;38.49
16613;BME280;8419;52.358;9.752;2022-12-16T02:42:12;100424.00;;;4.12;38.52
16613;BME280;8419;52.358;9.752;2022-12-16T02:45:03;100433.00;;;4.14;38.52
16613;BME280;8419;52.358;9.752;2022-12-16T02:47:51;100421.00;;;4.10;38.56
16613;BME280;8419;52.358;9.752;2022-12-16T02:50:40;100428.00;;;4.14;38.51
16613;BME280;8419;52.358;9.752;2022-12-16T02:53:29;100423.00;;;4.10;38.58
16613;BME280;8419;52.358;9.752;2022-12-16T02:56:32;100420.00;;;4.11;38.50
16613;BME280;8419;52.358;9.752;2022-12-16T02:59:28;100419.00;;;4.09;38.53
16613;BME280;8419;52.358;9.752;2022-12-16T03:02:23;100415.00;;;4.08;38.47
16613;BME280;8419;52.358;9.752;2022-12-16T03:05:13;100424.00;;;4.06;38.50
16613;BME280;8419;52.358;9.752;2022-12-16T03:08:06;100427.00;;;4.06;38.48
16613;BME280;8419;52.358;9.752;2022-12-16T03:10:56;100431.00;;;4.07;38.44
16613;BME280;8419;52.358;9.752;2022-12-16T03:13:46;100424.00;;;4.03;38.48
16613;BME280;8419;52.358;9.752;2022-12-16T03:16:34;100428.00;;;4.02;38.51
16613;BME280;8419;52.358;9.752;2022-12-16T03:19:20;100423.00;;;3.99;38.51
16613;BME280;8419;52.358;9.752;2022-12-16T03:22:10;100427.00;;;4.01;38.52
16613;BME280;8419;52.358;9.752;2022-12-16T03:24:57;100431.00;;;4.01;38.50
16613;BME280;8419;52.358;9.752;2022-12-16T03:27:48;100428.00;;;3.96;38.58
16613;BME280;8419;52.358;9.752;2022-12-16T03:30:43;100427.00;;;3.97;38.57
16613;BME280;8419;52.358;9.752;2022-12-16T03:33:33;100423.00;;;3.96;38.56
16613;BME280;8419;52.358;9.752;2022-12-16T03:36:26;100423.00;;;3.96;38.51
16613;BME280;8419;52.358;9.752;2022-12-16T03:39:15;100425.00;;;3.97;38.48
16613;BME280;8419;52.358;9.752;2022-12-16T03:42:03;100432.00;;;3.95;38.50
16613;BME280;8419;52.358;9.752;2022-12-16T03:44:50;100430.00;;;3.97;38.49
16613;BME280;8419;52.358;9.752;2022-12-16T03:47:37;100429.00;;;3.95;38.50
16613;BME280;8419;52.358;9.752;2022-12-16T03:50:26;100437.00;;;3.95;38.55
16613;BME280;8419;52.358;9.752;2022-12-16T03:53:13;100425.00;;;3.97;38.51
16613;BME280;8419;52.358;9.752;2022-12-16T03:55:59;100437.00;;;3.95;38.47
16613;BME280;8419;52.358;9.752;2022-12-16T03:58:46;100432.00;;;3.91;38.50
16613;BME280;8419;52.358;9.752;2022-12-16T04:01:32;100435.00;;;3.94;38.46
16613;BME280;8419;52.358;9.752;2022-12-16T04:04:20;100435.00;;;3.94;38.47
16613;BME280;8419;52.358;9.752;2022-12-16T04:07:06;100434.00;;;3.96;38.44
16613;BME280;8419;52.358;9.752;2022-12-16T04:10:09;100430.00;;;3.95;38.44
16613;BME280;8419;52.358;9.752;2022-12-16T04:12:54;100439.00;;;3.95;38.40
16613;BME280;8419;52.358;9.752;2022-12-16T04:15:59;100431.00;;;3.89;38.49
16613;BME280;8419;52.358;9.752;2022-12-16T04:19:03;100440.00;;;3.91;38.40
16613;BME280;8419;52.358;9.752;2022-12-16T04:22:13;100434.00;;;3.87;38.42
16613;BME280;8419;52.358;9.752;2022-12-16T04:25:20;100434.00;;;3.81;38.45
16613;BME280;8419;52.358;9.752;2022-12-16T04:28:06;100447.00;;;3.81;38.48
16613;BME280;8419;52.358;9.752;2022-12-16T04:30:52;100443.00;;;3.80;38.48
16613;BME280;8419;52.358;9.752;2022-12-16T04:33:38;100451.00;;;3.78;38.50
16613;BME280;8419;52.358;9.752;2022-12-16T04:36:43;100450.00;;;3.81;38.45
16613;BME280;8419;52.358;9.752;2022-12-16T04:39:47;100456.00;;;3.80;38.42
16613;BME280;8419;52.358;9.752;2022-12-16T04:42:51;100455.00;;;3.78;38.41
16613;BME280;8419;52.358;9.752;2022-12-16T04:45:55;100457.00;;;3.71;38.50
16613;BME280;8419;52.358;9.752;2022-12-16T04:48:59;100462.00;;;3.70;38.50
16613;BME280;8419;52.358;9.752;2022-12-16T04:52:04;100473.00;;;3.67;38.50
16613;BME280;8419;52.358;9.752;2022-12-16T04:55:09;100466.00;;;3.63;38.48
16613;BME280;8419;52.358;9.752;2022-12-16T04:58:14;100472.00;;;3.60;38.50
16613;BME280;8419;52.358;9.752;2022-12-16T05:01:18;100469.00;;;3.55;38.50
16613;BME280;8419;52.358;9.752;2022-12-16T05:04:22;100469.00;;;3.54;38.53
16613;BME280;8419;52.358;9.752;2022-12-16T05:07:26;100474.00;;;3.54;38.55
16613;BME280;8419;52.358;9.752;2022-12-16T05:10:30;100484.00;;;3.55;38.52
16613;BME280;8419;52.358;9.752;2022-12-16T05:13:34;100492.00;;;3.56;38.49
16613;BME280;8419;52.358;9.752;2022-12-16T05:16:38;100481.00;;;3.52;38.53
16613;BME280;8419;52.358;9.752;2022-12-16T05:19:43;100486.00;;;3.50;38.61
16613;BME280;8419;52.358;9.752;2022-12-16T05:22:47;100485.00;;;3.48;38.60
16613;BME280;8419;52.358;9.752;2022-12-16T05:25:51;100494.00;;;3.46;38.58
16613;BME280;8419;52.358;9.752;2022-12-16T05:28:55;100493.00;;;3.47;38.56
16613;BME280;8419;52.358;9.752;2022-12-16T05:32:00;100487.00;;;3.42;38.59
16613;BME280;8419;52.358;9.752;2022-12-16T05:35:05;100494.00;;;3.38;38.61
16613;BME280;8419;52.358;9.752;2022-12-16T05:38:09;100497.00;;;3.35;38.64
16613;BME280;8419;52.358;9.752;2022-12-16T05:41:13;100500.00;;;3.32;38.68
16613;BME280;8419;52.358;9.752;2022-12-16T05:44:17;100503.00;;;3.29;38.70
16613;BME280;8419;52.358;9.752;2022-12-16T05:47:21;100501.00;;;3.31;38.67
16613;BME280;8419;52.358;9.752;2022-12-16T05:50:28;100514.00;;;3.33;38.63
16613;BME280;8419;52.358;9.752;2022-12-16T05:53:32;100516.00;;;3.32;38.60
16613;BME280;8419;52.358;9.752;2022-12-16T05:56:36;100519.00;;;3.26;38.65
16613;BME280;8419;52.358;9.752;2022-12-16T05:59:40;100516.00;;;3.22;38.71
16613;BME280;8419;52.358;9.752;2022-12-16T06:05:56;100529.00;;;3.35;38.76
16613;BME280;8419;52.358;9.752;2022-12-16T06:09:00;100539.00;;;3.26;38.79
16613;BME280;8419;52.358;9.752;2022-12-16T06:12:05;100545.00;;;3.34;38.66
16613;BME280;8419;52.358;9.752;2022-12-16T06:15:10;100547.00;;;3.33;38.66
16613;BME280;8419;52.358;9.752;2022-12-16T06:18:14;100550.00;;;3.28;38.69
16613;BME280;8419;52.358;9.752;2022-12-16T06:21:18;100557.00;;;3.29;38.62
16613;BME280;8419;52.358;9.752;2022-12-16T06:24:25;100564.00;;;3.25;38.65
16613;BME280;8419;52.358;9.752;2022-12-16T06:27:29;100560.00;;;3.24;38.63
16613;BME280;8419;52.358;9.752;2022-12-16T06:30:33;100568.00;;;3.25;38.62
16613;BME280;8419;52.358;9.752;2022-12-16T06:33:37;100584.00;;;3.25;38.62
16613;BME280;8419;52.358;9.752;2022-12-16T06:36:41;100582.00;;;3.22;38.60
16613;BME280;8419;52.358;9.752;2022-12-16T06:39:45;100588.00;;;3.21;38.62
16613;BME280;8419;52.358;9.752;2022-12-16T06:42:54;100599.00;;;3.26;38.54
16613;BME280;8419;52.358;9.752;2022-12-16T06:46:18;100595.00;;;3.27;38.53
16613;BME280;8419;52.358;9.752;2022-12-16T06:49:25;100601.00;;;3.24;38.58
16613;BME280;8419;52.358;9.752;2022-12-16T06:52:31;100600.00;;;3.25;38.57
16613;BME280;8419;52.358;9.752;2022-12-16T06:55:36;100611.00;;;3.28;38.57
16613;BME280;8419;52.358;9.752;2022-12-16T06:58:43;100615.00;;;3.34;38.55
16613;BME280;8419;52.358;9.752;2022-12-16T07:01:48;100628.00;;;3.42;38.57
16613;BME280;8419;52.358;9.752;2022-12-16T07:04:52;100637.00;;;3.47;38.54
16613;BME280;8419;52.358;9.752;2022-12-16T07:07:57;100643.00;;;3.53;38.54
16613;BME280;8419;52.358;9.752;2022-12-16T07:11:01;100640.00;;;3.59;38.58
16613;BME280;8419;52.358;9.752;2022-12-16T07:14:05;100647.00;;;3.71;38.54
16613;BME280;8419;52.358;9.752;2022-12-16T07:17:09;100653.00;;;3.90;38.47
16613;BME280;8419;52.358;9.752;2022-12-16T07:20:13;100655.00;;;4.11;38.36
16613;BME280;8419;52.358;9.752;2022-12-16T07:23:18;100661.00;;;4.33;38.24
16613;BME280;8419;52.358;9.752;2022-12-16T07:26:22;100654.00;;;4.49;38.17
16613;BME280;8419;52.358;9.752;2022-12-16T07:29:26;100662.00;;;4.65;38.10
16613;BME280;8419;52.358;9.752;2022-12-16T07:32:38;100671.00;;;4.79;37.99
16613;BME280;8419;52.358;9.752;2022-12-16T07:35:42;100675.00;;;4.95;37.93
16613;BME280;8419;52.358;9.752;2022-12-16T07:38:46;100683.00;;;5.07;37.87
16613;BME280;8419;52.358;9.752;2022-12-16T07:41:50;100694.00;;;5.16;37.84
16613;BME280;8419;52.358;9.752;2022-12-16T07:44:55;100693.00;;;5.25;37.75
16613;BME280;8419;52.358;9.752;2022-12-16T07:47:59;100705.00;;;5.29;37.75
16613;BME280;8419;52.358;9.752;2022-12-16T07:51:04;100698.00;;;5.32;37.73
16613;BME280;8419;52.358;9.752;2022-12-16T07:54:08;100713.00;;;5.36;37.74
16613;BME280;8419;52.358;9.752;2022-12-16T07:57:12;100722.00;;;5.41;37.71
16613;BME280;8419;52.358;9.752;2022-12-16T08:00:17;100732.00;;;5.45;37.68
16613;BME280;8419;52.358;9.752;2022-12-16T08:03:21;100735.00;;;5.45;37.70
16613;BME280;8419;52.358;9.752;2022-12-16T08:06:26;100738.00;;;5.40;37.81
16613;BME280;8419;52.358;9.752;2022-12-16T08:09:30;100736.00;;;5.46;37.86
16613;BME280;8419;52.358;9.752;2022-12-16T08:12:36;100744.00;;;5.52;37.77
16613;BME280;8419;52.358;9.752;2022-12-16T08:15:42;100748.00;;;5.55;37.80
16613;BME280;8419;52.358;9.752;2022-12-16T08:18:45;100749.00;;;5.69;37.68
16613;BME280;8419;52.358;9.752;2022-12-16T08:21:50;100756.00;;;5.77;37.58
16613;BME280;8419;52.358;9.752;2022-12-16T08:24:54;100763.00;;;5.81;37.52
16613;BME280;8419;52.358;9.752;2022-12-16T08:27:58;100766.00;;;5.80;37.53
16613;BME280;8419;52.358;9.752;2022-12-16T08:31:02;100774.00;;;5.81;37.50
16613;BME280;8419;52.358;9.752;2022-12-16T08:34:09;100772.00;;;5.87;37.48
16613;BME280;8419;52.358;9.752;2022-12-16T08:37:13;100777.00;;;5.96;37.42
16613;BME280;8419;52.358;9.752;2022-12-16T08:40:17;100777.00;;;6.00;37.42
16613;BME280;8419;52.358;9.752;2022-12-16T08:43:22;100776.00;;;6.05;37.34
16613;BME280;8419;52.358;9.752;2022-12-16T08:46:28;100780.00;;;6.10;37.31
16613;BME280;8419;52.358;9.752;2022-12-16T08:49:32;100792.00;;;6.15;37.37
16613;BME280;8419;52.358;9.752;2022-12-16T08:52:36;100797.00;;;6.26;37.27
16613;BME280;8419;52.358;9.752;2022-12-16T08:55:40;100806.00;;;6.32;37.21
16613;BME280;8419;52.358;9.752;2022-12-16T08:58:45;100798.00;;;6.41;37.16
16613;BME280;8419;52.358;9.752;2022-12-16T09:01:52;100806.00;;;6.47;37.15
16613;BME280;8419;52.358;9.752;2022-12-16T09:04:57;100810.00;;;6.59;37.03
16613;BME280;8419;52.358;9.752;2022-12-16T09:08:14;100816.00;;;6.67;37.01
16613;BME280;8419;52.358;9.752;2022-12-16T09:11:29;100807.00;;;6.71;36.96
16613;BME280;8419;52.358;9.752;2022-12-16T09:14:34;100818.00;;;6.82;36.94
16613;BME280;8419;52.358;9.752;2022-12-16T09:17:38;100821.00;;;6.88;36.94
16613;BME280;8419;52.358;9.752;2022-12-16T09:20:42;100813.00;;;7.04;36.80
16613;BME280;8419;52.358;9.752;2022-12-16T09:27:00;100817.00;;;7.34;36.72
16613;BME280;8419;52.358;9.752;2022-12-16T09:30:06;100823.00;;;7.31;36.74
16613;BME280;8419;52.358;9.752;2022-12-16T09:33:11;100827.00;;;7.46;36.59
16613;BME280;8419;52.358;9.752;2022-12-16T09:36:16;100828.00;;;7.58;36.49
16613;BME280;8419;52.358;9.752;2022-12-16T09:39:20;100823.00;;;7.72;36.37
16613;BME280;8419;52.358;9.752;2022-12-16T09:42:33;100832.00;;;7.80;36.34
16613;BME280;8419;52.358;9.752;2022-12-16T09:45:50;100838.00;;;7.90;36.38
16613;BME280;8419;52.358;9.752;2022-12-16T09:49:10;100838.00;;;8.03;36.27
16613;BME280;8419;52.358;9.752;2022-12-16T09:52:17;100840.00;;;8.10;36.32
16613;BME280;8419;52.358;9.752;2022-12-16T09:55:27;100842.00;;;8.24;36.25
16613;BME280;8419;52.358;9.752;2022-12-16T09:58:35;100844.00;;;8.40;36.16
16613;BME280;8419;52.358;9.752;2022-12-16T10:01:40;100839.00;;;8.50;36.12
16613;BME280;8419;52.358;9.752;2022-12-16T10:04:50;100857.00;;;8.65;36.04
16613;BME280;8419;52.358;9.752;2022-12-16T10:08:00;100855.00;;;8.73;36.01
16613;BME280;8419;52.358;9.752;2022-12-16T10:11:15;100853.00;;;8.83;36.00
16613;BME280;8419;52.358;9.752;2022-12-16T10:14:27;100861.00;;;8.94;35.92
16613;BME280;8419;52.358;9.752;2022-12-16T10:17:34;100854.00;;;9.02;35.87
16613;BME280;8419;52.358;9.752;2022-12-16T10:20:44;100858.00;;;9.05;35.89
16613;BME280;8419;52.358;9.752;2022-12-16T10:23:55;100850.00;;;9.12;35.88
16613;BME280;8419;52.358;9.752;2022-12-16T10:27:07;100857.00;;;9.19;35.86
16613;BME280;8419;52.358;9.752;2022-12-16T10:30:29;100859.00;;;9.27;35.85
16613;BME280;8419;52.358;9.752;2022-12-16T10:33:34;100859.00;;;9.39;35.80
16613;BME280;8419;52.358;9.752;2022-12-16T10:36:40;100858.00;;;9.51;35.70
16613;BME280;8419;52.358;9.752;2022-12-16T10:39:51;100851.00;;;9.56;35.68
16613;BME280;8419;52.358;9.752;2022-12-16T10:43:01;100848.00;;;9.66;35.69
16613;BME280;8419;52.358;9.752;2022-12-16T10:46:12;100852.00;;;9.74;35.63
16613;BME280;8419;52.358;9.752;2022-12-16T10:49:19;100855.00;;;9.77;35.63
16613;BME280;8419;52.358;9.752;2022-12-16T10:52:24;100849.00;;;9.68;35.71
16613;BME280;8419;52.358;9.752;2022-12-16T10:55:41;100848.00;;;9.50;35.86
16613;BME280;8419;52.358;9.752;2022-12-16T10:58:53;100845.00;;;9.31;36.08
16613;BME280;8419;52.358;9.752;2022-12-16T11:01:59;100853.00;;;9.27;36.14
16613;BME280;8419;52.358;9.752;2022-12-16T11:05:27;100858.00;;;9.29;36.15
16613;BME280;8419;52.358;9.752;2022-12-16T11:08:34;100859.00;;;9.44;36.13
16613;BME280;8419;52.358;9.752;2022-12-16T11:11:38;100852.00;;;9.54;36.02
16613;BME280;8419;52.358;9.752;2022-12-16T11:14:51;100860.00;;;9.65;35.95
16613;BME280;8419;52.358;9.752;2022-12-16T11:18:03;100858.00;;;9.77;35.96
16613;BME280;8419;52.358;9.752;2022-12-16T11:21:12;100863.00;;;9.79;35.95
16613;BME280;8419;52.358;9.752;2022-12-16T11:24:18;100868.00;;;10.00;35.94
16613;BME280;8419;52.358;9.752;2022-12-16T11:27:24;100863.00;;;10.25;35.75
16613;BME280;8419;52.358;9.752;2022-12-16T11:30:29;100873.00;;;10.41;35.66
16613;BME280;8419;52.358;9.752;2022-12-16T11:33:33;100870.00;;;10.36;35.63
16613;BME280;8419;52.358;9.752;2022-12-16T11:36:39;100865.00;;;10.30;35.69
16613;BME280;8419;52.358;9.752;2022-12-16T11:39:44;100881.00;;;10.32;35.83
16613;BME280;8419;52.358;9.752;2022-12-16T11:42:48;100882.00;;;10.42;35.72
16613;BME280;8419;52.358;9.752;2022-12-16T11:45:53;100877.00;;;10.50;35.68
16613;BME280;8419;52.358;9.752;2022-12-16T11:49:00;100874.00;;;10.42;35.69
16613;BME280;8419;52.358;9.752;2022-12-16T11:52:05;100875.00;;;10.38;35.82
16613;BME280;8419;52.358;9.752;2022-12-16T11:55:16;100880.00;;;10.48;35.80
16613;BME280;8419;52.358;9.752;2022-12-16T11:58:25;100872.00;;;10.81;35.67
16613;BME280;8419;52.358;9.752;2022-12-16T12:01:37;100872.00;;;11.05;35.42
16613;BME280;8419;52.358;9.752;2022-12-16T12:04:47;100876.00;;;11.18;35.26
16613;BME280;8419;52.358;9.752;2022-12-16T12:07:58;100877.00;;;11.23;35.25
16613;BME280;8419;52.358;9.752;2022-12-16T12:11:12;100882.00;;;11.37;35.20
16613;BME280;8419;52.358;9.752;2022-12-16T12:14:30;100875.00;;;11.49;35.08
16613;BME280;8419;52.358;9.752;2022-12-16T12:17:39;100872.00;;;11.56;35.05
16613;BME280;8419;52.358;9.752;2022-12-16T12:20:56;100884.00;;;11.64;34.96
16613;BME280;8419;52.358;9.752;2022-12-16T12:24:07;100890.00;;;11.67;34.96
16613;BME280;8419;52.358;9.752;2022-12-16T12:27:20;100893.00;;;11.56;35.12
16613;BME280;8419;52.358;9.752;2022-12-16T12:30:28;100892.00;;;11.60;35.13
16613;BME280;8419;52.358;9.752;2022-12-16T12:33:50;100906.00;;;11.59;35.17
16613;BME280;8419;52.358;9.752;2022-12-16T12:37:01;100899.00;;;11.74;34.96
16613;BME280;8419;52.358;9.752;2022-12-16T12:40:21;100905.00;;;11.76;34.91
16613;BME280;8419;52.358;9.752;2022-12-16T12:43:40;100911.00;;;11.72;34.98
16613;BME280;8419;52.358;9.752;2022-12-16T12:46:52;100913.00;;;11.71;35.06
16613;BME280;8419;52.358;9.752;2022-12-16T12:50:04;100919.00;;;11.78;34.88
16613;BME280;8419;52.358;9.752;2022-12-16T12:53:22;100923.00;;;11.61;35.00
16613;BME280;8419;52.358;9.752;2022-12-16T12:56:39;100926.00;;;11.57;35.08
16613;BME280;8419;52.358;9.752;2022-12-16T12:59:50;100925.00;;;11.42;35.29
16613;BME280;8419;52.358;9.752;2022-12-16T13:03:03;100929.00;;;11.41;35.32
16613;BME280;8419;52.358;9.752;2022-12-16T13:06:12;100926.00;;;11.45;35.30
16613;BME280;8419;52.358;9.752;2022-12-16T13:09:27;100936.00;;;11.44;35.30
16613;BME280;8419;52.358;9.752;2022-12-16T13:12:32;100934.00;;;11.41;35.33
16613;BME280;8419;52.358;9.752;2022-12-16T13:15:38;100939.00;;;11.45;35.24
16613;BME280;8419;52.358;9.752;2022-12-16T13:18:42;100937.00;;;11.34;35.59
16613;BME280;8419;52.358;9.752;2022-12-16T13:21:54;100937.00;;;11.54;35.16
16613;BME280;8419;52.358;9.752;2022-12-16T13:24:58;100938.00;;;11.48;35.21
16613;BME280;8419;52.358;9.752;2022-12-16T13:28:03;100949.00;;;11.49;35.12
16613;BME280;8419;52.358;9.752;2022-12-16T13:31:08;100948.00;;;11.45;35.16
16613;BME280;8419;52.358;9.752;2022-12-16T13:34:23;100952.00;;;11.41;35.24
16613;BME280;8419;52.358;9.752;2022-12-16T13:37:30;100961.00;;;11.37;35.25
16613;BME280;8419;52.358;9.752;2022-12-16T13:40:48;100960.00;;;11.33;35.27
16613;BME280;8419;52.358;9.752;2022-12-16T13:43:54;100957.00;;;11.31;35.32
16613;BME280;8419;52.358;9.752;2022-12-16T13:46:59;100973.00;;;11.28;35.32
16613;BME280;8419;52.358;9.752;2022-12-16T13:50:35;100972.00;;;11.28;35.30
16613;BME280;8419;52.358;9.752;2022-12-16T13:53:42;100964.00;;;11.20;35.42
16613;BME280;8419;52.358;9.752;2022-12-16T13:56:49;100969.00;;;11.17;35.43
16613;BME280;8419;52.358;9.752;2022-12-16T13:59:53;100968.00;;;11.13;35.44
16613;BME280;8419;52.358;9.752;2022-12-16T14:02:59;100970.00;;;11.05;35.57
16613;BME280;8419;52.358;9.752;2022-12-16T14:06:12;100959.00;;;11.06;35.54
16613;BME280;8419;52.358;9.752;2022-12-16T14:12:47;100980.00;;;11.17;35.52
16613;BME280;8419;52.358;9.752;2022-12-16T14:16:03;100995.00;;;10.98;35.61
16613;BME280;8419;52.358;9.752;2022-12-16T14:19:17;100999.00;;;11.00;35.50
16613;BME280;8419;52.358;9.752;2022-12-16T14:22:42;101001.00;;;10.96;35.50
16613;BME280;8419;52.358;9.752;2022-12-16T14:25:55;101003.00;;;10.94;35.51
16613;BME280;8419;52.358;9.752;2022-12-16T14:29:07;101013.00;;;10.91;35.48
16613;BME280;8419;52.358;9.752;2022-12-16T14:32:25;101017.00;;;10.84;35.55
16613;BME280;8419;52.358;9.752;2022-12-16T14:35:35;101018.00;;;10.89;35.45
16613;BME280;8419;52.358;9.752;2022-12-16T14:38:46;101020.00;;;10.81;35.49
16613;BME280;8419;52.358;9.752;2022-12-16T14:41:52;101022.00;;;10.76;35.56
16613;BME280;8419;52.358;9.752;2022-12-16T14:44:57;101025.00;;;10.69;35.63
16613;BME280;8419;52.358;9.752;2022-12-16T14:48:01;101031.00;;;10.69;35.60
16613;BME280;8419;52.358;9.752;2022-12-16T14:51:19;101031.00;;;10.68;35.60
16613;BME280;8419;52.358;9.752;2022-12-16T14:54:29;101033.00;;;10.64;35.66
16613;BME280;8419;52.358;9.752;2022-12-16T14:57:35;101037.00;;;10.61;35.66
16613;BME280;8419;52.358;9.752;2022-12-16T15:00:40;101043.00;;;10.54;35.72
16613;BME280;8419;52.358;9.752;2022-12-16T15:03:49;101034.00;;;10.46;35.88
16613;BME280;8419;52.358;9.752;2022-12-16T15:06:55;101047.00;;;10.47;35.84
16613;BME280;8419;52.358;9.752;2022-12-16T15:10:00;101055.00;;;10.43;35.90
16613;BME280;8419;52.358;9.752;2022-12-16T15:13:08;101054.00;;;10.33;36.03
16613;BME280;8419;52.358;9.752;2022-12-16T15:16:18;101062.00;;;10.34;35.99
16613;BME280;8419;52.358;9.752;2022-12-16T15:19:25;101059.00;;;10.33;35.98
16613;BME280;8419;52.358;9.752;2022-12-16T15:22:30;101071.00;;;10.29;36.01
16613;BME280;8419;52.358;9.752;2022-12-16T15:25:34;101074.00;;;10.35;35.91
16613;BME280;8419;52.358;9.752;2022-12-16T15:28:46;101072.00;;;10.34;35.90
16613;BME280;8419;52.358;9.752;2022-12-16T15:31:50;101078.00;;;10.36;35.86
16613;BME280;8419;52.358;9.752;2022-12-16T15:34:54;101080.00;;;10.34;35.88
16613;BME280;8419;52.358;9.752;2022-12-16T15:37:58;101084.00;;;10.30;35.92
16613;BME280;8419;52.358;9.752;2022-12-16T15:41:04;101090.00;;;10.23;36.08
16613;BME280;8419;52.358;9.752;2022-12-16T15:44:19;101097.00;;;10.08;36.36
16613;BME280;8419;52.358;9.752;2022-12-16T15:47:28;101099.00;;;10.19;36.17
16613;BME280;8419;52.358;9.752;2022-12-16T15:50:34;101107.00;;;10.11;36.32
16613;BME280;8419;52.358;9.752;2022-12-16T15:53:39;101107.00;;;10.01;36.47
16613;BME280;8419;52.358;9.752;2022-12-16T15:56:45;101108.00;;;10.05;36.46
16613;BME280;8419;52.358;9.752;2022-12-16T15:59:57;101109.00;;;9.97;36.57
16613;BME280;8419;52.358;9.752;2022-12-16T16:03:02;101109.00;;;10.06;36.44
16613;BME280;8419;52.358;9.752;2022-12-16T16:06:15;101115.00;;;10.05;36.42
16613;BME280;8419;52.358;9.752;2022-12-16T16:09:23;101111.00;;;10.07;36.41
16613;BME280;8419;52.358;9.752;2022-12-16T16:12:28;101118.00;;;10.11;36.33
16613;BME280;8419;52.358;9.752;2022-12-16T16:15:32;101121.00;;;10.07;36.40
16613;BME280;8419;52.358;9.752;2022-12-16T16:18:36;101120.00;;;9.97;36.59
16613;BME280;8419;52.358;9.752;2022-12-16T16:21:40;101120.00;;;9.92;36.68
16613;BME280;8419;52.358;9.752;2022-12-16T16:24:46;101127.00;;;9.92;36.67
16613;BME280;8419;52.358;9.752;2022-12-16T16:27:50;101131.00;;;9.97;36.60